createdAt,value
2019-05-03T00:00:42.565Z,100561.84
2019-05-03T00:03:12.839Z,100567.05
2019-05-03T00:05:43.109Z,100564.05
2019-05-03T00:08:12.628Z,100561.84
2019-05-03T00:10:42.538Z,100560.09
2019-05-03T00:13:12.453Z,100560.09
2019-05-03T00:15:48.309Z,100560.52
2019-05-03T00:18:16.886Z,100563.14
2019-05-03T00:20:45.406Z,100558.82
2019-05-03T00:23:13.851Z,100567.50
2019-05-03T00:25:42.293Z,100564.02
2019-05-03T00:28:10.740Z,100569.23
2019-05-03T00:30:39.173Z,100568.80
2019-05-03T00:33:07.666Z,100572.73
2019-05-03T00:35:37.718Z,100571.44
2019-05-03T00:38:07.801Z,100567.53
2019-05-03T00:40:36.249Z,100564.91
2019-05-03T00:43:04.857Z,100574.86
2019-05-03T00:45:33.256Z,100567.02
2019-05-03T00:48:02.031Z,100569.59
2019-05-03T00:50:32.032Z,100570.02
2019-05-03T00:53:02.395Z,100566.11
2019-05-03T00:55:48.165Z,100567.91
2019-05-03T00:58:16.627Z,100566.08
2019-05-03T01:00:45.055Z,100565.27
2019-05-03T01:03:13.525Z,100560.94
2019-05-03T01:05:42.401Z,100560.09
2019-05-03T01:08:12.634Z,100556.61
2019-05-03T01:10:42.148Z,100561.84
2019-05-03T01:13:12.339Z,100557.55
2019-05-03T01:15:57.714Z,100556.33
2019-05-03T01:18:26.249Z,100554.30
2019-05-03T01:20:54.685Z,100557.84
2019-05-03T01:23:23.145Z,100560.97
2019-05-03T01:25:51.759Z,100566.22
2019-05-03T01:28:21.608Z,100569.75
2019-05-03T01:30:51.928Z,100568.47
2019-05-03T01:33:22.542Z,100569.81
2019-05-03T01:35:51.911Z,100564.23
2019-05-03T01:38:22.505Z,100566.88
2019-05-03T01:40:52.183Z,100569.53
2019-05-03T01:43:22.206Z,100566.54
2019-05-03T01:45:51.869Z,100573.06
2019-05-03T01:48:22.025Z,100573.52
2019-05-03T01:50:54.708Z,100582.17
2019-05-03T01:53:24.779Z,100580.05
2019-05-03T01:55:53.241Z,100583.95
2019-05-03T01:58:24.793Z,100583.52
2019-05-03T02:01:02.674Z,100587.83
2019-05-03T02:03:41.824Z,100594.75
2019-05-03T02:06:11.924Z,100591.28
2019-05-03T02:08:41.837Z,100593.43
2019-05-03T02:11:11.597Z,100592.13
2019-05-03T02:13:40.136Z,100592.58
2019-05-03T02:16:08.640Z,100598.22
2019-05-03T02:18:37.031Z,100596.51
2019-05-03T02:21:05.496Z,100603.45
2019-05-03T02:23:33.932Z,100598.27
2019-05-03T02:26:03.062Z,100598.28
2019-05-03T02:28:32.679Z,100600.88
2019-05-03T02:31:03.473Z,100609.57
2019-05-03T02:33:32.893Z,100609.56
2019-05-03T02:36:03.592Z,100614.78
2019-05-03T02:38:33.768Z,100619.97
2019-05-03T02:41:02.932Z,100610.48
2019-05-03T02:43:36.408Z,100616.14
2019-05-03T02:46:06.908Z,100621.78
2019-05-03T02:48:46.210Z,100618.77
2019-05-03T02:51:16.317Z,100618.73
2019-05-03T02:53:45.690Z,100614.01
2019-05-03T02:56:22.228Z,100620.10
2019-05-03T02:58:46.154Z,100617.52
2019-05-03T03:01:16.197Z,100614.02
2019-05-03T03:03:45.893Z,100621.38
2019-05-03T03:06:17.709Z,100625.70
2019-05-03T03:08:48.563Z,100630.45
2019-05-03T03:11:18.731Z,100626.13
2019-05-03T03:13:48.231Z,100620.92
2019-05-03T03:16:20.487Z,100626.53
2019-05-03T03:18:47.033Z,100623.48
2019-05-03T03:21:19.749Z,100623.91
2019-05-03T03:24:06.542Z,100625.69
2019-05-03T03:26:42.756Z,100622.23
2019-05-03T03:29:10.285Z,100622.67
2019-05-03T03:32:18.588Z,100619.22
2019-05-03T03:35:03.160Z,100632.22
2019-05-03T03:37:29.359Z,100637.41
2019-05-03T03:39:58.043Z,100637.41
2019-05-03T03:42:28.232Z,100634.84
2019-05-03T03:44:57.893Z,100636.55
2019-05-03T03:47:28.874Z,100630.92
2019-05-03T03:49:58.659Z,100636.13
2019-05-03T03:52:29.942Z,100640.02
2019-05-03T03:55:00.710Z,100640.45
2019-05-03T03:57:32.481Z,100644.79
2019-05-03T04:00:01.258Z,100647.83
2019-05-03T04:02:29.819Z,100646.97
2019-05-03T04:04:58.899Z,100641.83
2019-05-03T04:07:27.417Z,100651.34
2019-05-03T04:09:56.560Z,100660.00
2019-05-03T04:12:26.589Z,100658.70
2019-05-03T04:14:57.177Z,100659.12
2019-05-03T04:17:45.622Z,100665.19
2019-05-03T04:20:16.337Z,100664.17
2019-05-03T04:22:45.478Z,100664.11
2019-05-03T04:25:15.409Z,100675.46
2019-05-03T04:27:45.770Z,100669.44
2019-05-03T04:30:16.511Z,100679.39
2019-05-03T04:32:45.887Z,100673.77
2019-05-03T04:35:16.372Z,100676.34
2019-05-03T04:37:45.300Z,100679.38
2019-05-03T04:40:15.609Z,100686.73
2019-05-03T04:42:46.396Z,100684.98
2019-05-03T04:45:16.587Z,100693.60
2019-05-03T04:47:46.438Z,100685.74
2019-05-03T04:50:16.784Z,100690.92
2019-05-03T04:52:46.282Z,100696.06
2019-05-03T04:55:16.126Z,100692.57
2019-05-03T04:57:49.223Z,100701.20
2019-05-03T05:00:17.114Z,100709.86
2019-05-03T05:02:46.164Z,100710.69
2019-05-03T05:05:15.364Z,100710.66
2019-05-03T05:07:46.022Z,100719.25
2019-05-03T05:10:16.399Z,100718.36
2019-05-03T05:12:45.908Z,100730.91
2019-05-03T05:15:15.787Z,100735.57
2019-05-03T05:18:01.369Z,100725.48
2019-05-03T05:20:45.682Z,100731.52
2019-05-03T05:23:14.790Z,100726.60
2019-05-03T05:26:01.229Z,100727.05
2019-05-03T05:28:31.289Z,100732.27
2019-05-03T05:30:59.754Z,100737.44
2019-05-03T05:33:28.272Z,100734.38
2019-05-03T05:35:58.408Z,100739.86
2019-05-03T05:38:29.638Z,100749.39
2019-05-03T05:40:58.279Z,100755.41
2019-05-03T05:43:30.005Z,100747.70
2019-05-03T05:46:10.408Z,100747.88
2019-05-03T05:48:36.072Z,100747.05
2019-05-03T05:51:16.085Z,100747.45
2019-05-03T05:53:38.467Z,100749.63
2019-05-03T05:56:28.252Z,100748.81
2019-05-03T05:59:19.839Z,100758.77
2019-05-03T06:01:47.739Z,100756.55
2019-05-03T06:04:16.263Z,100760.45
2019-05-03T06:07:01.656Z,100617.98
2019-05-03T06:09:39.438Z,100767.91
2019-05-03T06:12:26.552Z,100770.99
2019-05-03T06:14:50.435Z,100769.86
2019-05-03T06:17:24.940Z,100771.62
2019-05-03T06:19:52.472Z,100774.15
2019-05-03T06:22:46.748Z,100770.67
2019-05-03T06:25:26.444Z,100777.98
2019-05-03T06:28:00.055Z,100775.75
2019-05-03T06:30:41.933Z,100778.98
2019-05-03T06:33:14.605Z,100777.69
2019-05-03T06:35:44.587Z,100774.66
2019-05-03T06:38:15.135Z,100783.30
2019-05-03T06:40:46.291Z,100784.81
2019-05-03T06:43:15.735Z,100788.27
2019-05-03T06:45:50.640Z,100786.56
2019-05-03T06:48:22.354Z,100783.39
2019-05-03T06:50:50.794Z,100785.42
2019-05-03T06:53:19.318Z,100786.11
2019-05-03T06:55:48.583Z,100787.69
2019-05-03T06:58:31.296Z,100790.34
2019-05-03T07:00:57.486Z,100790.34
2019-05-03T07:03:29.247Z,100793.14
2019-05-03T07:06:15.694Z,100789.08
2019-05-03T07:08:57.736Z,100792.83
2019-05-03T07:11:26.351Z,100800.84
2019-05-03T07:13:59.236Z,100793.51
2019-05-03T07:16:25.488Z,100790.48
2019-05-03T07:18:58.516Z,100789.71
2019-05-03T07:21:27.557Z,100787.18
2019-05-03T07:23:56.055Z,100795.81
2019-05-03T07:26:30.717Z,100793.80
2019-05-03T07:28:56.539Z,100791.56
2019-05-03T07:31:25.629Z,100782.66
2019-05-03T07:33:58.837Z,100784.75
2019-05-03T07:36:27.588Z,100781.20
2019-05-03T07:38:56.308Z,100776.88
2019-05-03T07:41:27.125Z,100774.62
2019-05-03T07:43:55.262Z,100774.17
2019-05-03T07:46:25.399Z,100771.52
2019-05-03T07:48:54.797Z,100772.27
2019-05-03T07:51:24.907Z,100777.50
2019-05-03T07:53:56.256Z,100779.17
2019-05-03T07:56:26.428Z,100780.70
2019-05-03T07:59:02.212Z,100784.61
2019-05-03T08:01:28.694Z,100779.42
2019-05-03T08:04:01.629Z,100778.63
2019-05-03T08:06:29.509Z,100783.71
2019-05-03T08:08:58.079Z,100785.16
2019-05-03T08:11:32.620Z,100783.07
2019-05-03T08:13:58.649Z,100781.81
2019-05-03T08:16:27.161Z,100782.77
2019-05-03T08:19:05.026Z,100784.60
2019-05-03T08:21:38.022Z,100787.20
2019-05-03T08:24:04.699Z,100783.95
2019-05-03T08:26:35.060Z,100785.53
2019-05-03T08:29:16.247Z,100786.16
2019-05-03T08:31:49.367Z,100787.98
2019-05-03T08:34:10.820Z,100780.77
2019-05-03T08:36:58.832Z,100786.41
2019-05-03T08:39:27.402Z,100785.47
2019-05-03T08:41:57.632Z,100797.75
2019-05-03T08:44:27.048Z,100787.53
2019-05-03T08:46:56.494Z,100778.17
2019-05-03T08:49:25.572Z,100781.67
2019-05-03T08:51:54.972Z,100784.46
2019-05-03T08:54:25.763Z,100789.45
2019-05-03T08:56:55.720Z,100785.47
2019-05-03T08:59:29.934Z,100796.42
2019-05-03T09:01:55.070Z,100786.37
2019-05-03T09:04:36.286Z,100790.45
2019-05-03T09:06:55.041Z,100776.69
2019-05-03T09:09:25.649Z,100787.19
2019-05-03T09:11:55.675Z,100785.75
2019-05-03T09:14:38.761Z,100782.34
2019-05-03T09:16:57.177Z,100789.98
2019-05-03T09:19:25.723Z,100770.94
2019-05-03T09:21:54.829Z,100776.98
2019-05-03T09:24:24.692Z,100768.66
2019-05-03T09:26:55.655Z,100766.39
2019-05-03T09:29:25.519Z,100764.00
2019-05-03T09:31:56.013Z,100762.84
2019-05-03T09:34:25.707Z,100758.06
2019-05-03T09:36:55.312Z,100762.23
2019-05-03T09:39:24.634Z,100760.31
2019-05-03T09:41:55.305Z,100754.93
2019-05-03T09:44:24.493Z,100761.91
2019-05-03T09:46:55.030Z,100644.65
2019-05-03T09:49:25.336Z,100758.00
2019-05-03T09:51:54.819Z,100751.83
2019-05-03T09:54:25.590Z,100750.90
2019-05-03T09:56:58.553Z,100755.72
2019-05-03T09:59:28.535Z,100753.23
2019-05-03T10:02:04.485Z,100754.60
2019-05-03T10:04:36.600Z,100757.44
2019-05-03T10:07:05.506Z,100747.53
2019-05-03T10:09:35.353Z,100748.00
2019-05-03T10:12:05.763Z,100743.50
2019-05-03T10:14:34.760Z,100738.27
2019-05-03T10:17:21.310Z,100747.31
2019-05-03T10:19:54.674Z,100745.30
2019-05-03T10:22:27.536Z,100756.77
2019-05-03T10:24:56.932Z,100752.53
2019-05-03T10:27:26.840Z,100754.63
2019-05-03T10:30:09.039Z,100755.98
2019-05-03T10:32:27.426Z,100756.52
2019-05-03T10:34:57.591Z,100748.63
2019-05-03T10:37:35.769Z,100751.46
2019-05-03T10:40:07.885Z,100751.98
2019-05-03T10:42:35.378Z,100743.99
2019-05-03T10:45:11.269Z,100747.36
2019-05-03T10:47:36.079Z,100752.80
2019-05-03T10:50:06.624Z,100750.57
2019-05-03T10:52:37.034Z,100739.42
2019-05-03T10:55:07.215Z,100747.59
2019-05-03T10:57:37.503Z,100738.33
2019-05-03T11:00:39.387Z,100742.49
2019-05-03T11:02:49.323Z,100741.23
2019-05-03T11:05:17.806Z,100734.07
2019-05-03T11:07:46.377Z,100730.82
2019-05-03T11:10:14.963Z,100734.69
2019-05-03T11:12:43.447Z,100730.67
2019-05-03T11:15:14.879Z,100730.44
2019-05-03T11:17:43.161Z,100728.87
2019-05-03T11:20:18.230Z,100733.72
2019-05-03T11:22:45.258Z,100735.66
2019-05-03T11:25:19.743Z,100723.48
2019-05-03T11:27:49.904Z,100717.55
2019-05-03T11:30:19.341Z,100717.30
2019-05-03T11:32:55.749Z,100708.22
2019-05-03T11:35:45.753Z,100714.98
2019-05-03T11:38:15.927Z,100714.48
2019-05-03T11:40:45.514Z,100708.48
2019-05-03T11:43:15.264Z,100713.44
2019-05-03T11:45:44.887Z,100713.08
2019-05-03T11:48:14.789Z,100705.23
2019-05-03T11:50:45.365Z,100710.92
2019-05-03T11:53:14.512Z,100705.00
2019-05-03T11:55:46.240Z,100697.02
2019-05-03T11:58:20.997Z,100698.97
2019-05-03T12:00:51.948Z,100704.41
2019-05-03T12:03:22.093Z,100694.40
2019-05-03T12:05:52.195Z,100703.80
2019-05-03T12:08:20.661Z,100703.55
2019-05-03T12:10:57.270Z,100695.50
2019-05-03T12:13:20.929Z,100703.13
2019-05-03T12:15:49.435Z,100701.89
2019-05-03T12:18:18.442Z,100694.48
2019-05-03T12:20:48.265Z,100695.80
2019-05-03T12:23:18.022Z,100699.16
2019-05-03T12:25:47.806Z,100691.11
2019-05-03T12:28:16.740Z,100682.65
2019-05-03T12:30:45.198Z,100682.48
2019-05-03T12:33:15.374Z,100684.44
2019-05-03T12:35:45.999Z,100687.96
2019-05-03T12:38:16.304Z,100677.59
2019-05-03T12:40:45.577Z,100671.83
2019-05-03T12:43:14.954Z,100671.80
2019-05-03T12:45:43.454Z,100673.92
2019-05-03T12:48:11.883Z,100660.09
2019-05-03T12:50:40.855Z,100666.58
2019-05-03T12:53:09.711Z,100656.32
2019-05-03T12:55:38.141Z,100672.23
2019-05-03T12:58:06.736Z,100668.62
2019-05-03T13:00:48.635Z,100660.90
2019-05-03T13:03:31.025Z,100664.84
2019-05-03T13:06:00.740Z,100663.08
2019-05-03T13:08:35.299Z,100665.30
2019-05-03T13:11:05.978Z,100661.76
2019-05-03T13:13:35.786Z,100663.79
2019-05-03T13:16:08.975Z,100665.16
2019-05-03T13:18:37.583Z,100664.42
2019-05-03T13:21:07.239Z,100660.45
2019-05-03T13:23:35.938Z,100667.25
2019-05-03T13:26:05.690Z,100660.72
2019-05-03T13:28:34.527Z,100661.69
2019-05-03T13:31:05.442Z,100665.00
2019-05-03T13:33:34.807Z,100653.33
2019-05-03T13:36:03.306Z,100661.91
2019-05-03T13:38:34.934Z,100650.43
2019-05-03T13:41:09.455Z,100654.88
2019-05-03T13:43:37.973Z,100648.91
2019-05-03T13:46:09.099Z,100643.77
2019-05-03T13:48:45.516Z,100642.77
2019-05-03T13:54:18.931Z,100642.15
2019-05-03T13:56:49.193Z,100631.92
2019-05-03T13:59:21.391Z,100630.39
2019-05-03T14:01:47.740Z,100635.83
2019-05-03T14:04:16.171Z,100632.66
2019-05-03T14:06:44.854Z,100633.77
2019-05-03T14:09:13.297Z,100626.87
2019-05-03T14:11:41.736Z,100632.75
2019-05-03T14:14:10.160Z,100634.18
2019-05-03T14:16:45.198Z,100645.92
2019-05-03T14:19:15.403Z,100639.12
2019-05-03T14:21:45.483Z,100649.81
2019-05-03T14:24:16.808Z,100652.27
2019-05-03T14:26:55.649Z,100662.22
2019-05-03T14:29:25.308Z,100651.88
2019-05-03T14:31:54.574Z,100657.11
2019-05-03T14:34:25.500Z,100667.00
2019-05-03T14:37:31.839Z,100658.43
2019-05-03T14:40:01.712Z,100659.75
2019-05-03T14:42:30.291Z,100654.78
2019-05-03T14:44:58.758Z,100656.25
2019-05-03T14:47:27.187Z,100665.48
2019-05-03T14:50:15.132Z,100662.65
2019-05-03T14:52:45.512Z,100672.48
2019-05-03T14:55:18.689Z,100666.92
2019-05-03T14:57:57.433Z,100678.38
2019-05-03T15:00:27.527Z,100681.41
2019-05-03T15:03:00.535Z,100676.23
2019-05-03T15:05:55.105Z,100669.72
2019-05-03T15:08:25.677Z,100673.20
2019-05-03T15:10:54.718Z,100667.65
2019-05-03T15:13:25.074Z,100660.20
2019-05-03T15:15:55.270Z,100665.97
2019-05-03T15:18:25.632Z,100670.30
2019-05-03T15:20:55.354Z,100665.84
2019-05-03T15:23:25.485Z,100664.49
2019-05-03T15:26:18.608Z,100663.89
2019-05-03T15:28:47.038Z,100658.81
2019-05-03T15:31:15.551Z,100655.69
2019-05-03T15:33:44.909Z,100658.81
2019-05-03T15:36:15.397Z,100652.98
2019-05-03T15:38:44.614Z,100645.40
2019-05-03T15:41:14.687Z,100645.20
2019-05-03T15:43:45.466Z,100644.13
2019-05-03T15:46:18.491Z,100643.20
2019-05-03T15:48:57.407Z,100647.00
2019-05-03T15:51:25.860Z,100634.19
2019-05-03T15:53:55.148Z,100649.25
2019-05-03T15:56:25.275Z,100653.33
2019-05-03T15:58:55.232Z,100644.23
2019-05-03T16:01:24.844Z,100643.81
2019-05-03T16:03:56.134Z,100644.36
2019-05-03T16:06:36.546Z,100642.31
2019-05-03T16:09:06.788Z,100636.72
2019-05-03T16:11:36.884Z,100634.98
2019-05-03T16:14:08.613Z,100631.20
2019-05-03T16:16:37.221Z,100637.52
2019-05-03T16:19:05.787Z,100639.28
2019-05-03T16:21:36.617Z,100636.08
2019-05-03T16:24:04.994Z,100638.77
2019-05-03T16:26:35.503Z,100635.28
2019-05-03T16:29:11.312Z,100636.66
2019-05-03T16:31:42.730Z,100633.28
2019-05-03T16:34:11.157Z,100638.38
2019-05-03T16:36:39.661Z,100635.03
2019-05-03T16:39:08.244Z,100636.68
2019-05-03T16:41:36.759Z,100631.45
2019-05-03T16:44:05.301Z,100629.81
2019-05-03T16:46:34.361Z,100627.45
2019-05-03T16:49:06.524Z,100623.87
2019-05-03T16:51:35.240Z,100625.19
2019-05-03T16:54:03.803Z,100623.92
2019-05-03T16:56:32.397Z,100619.97
2019-05-03T16:59:00.810Z,100617.36
2019-05-03T17:01:29.254Z,100614.38
2019-05-03T17:03:59.318Z,100604.87
2019-05-03T17:06:35.479Z,100617.86
2019-05-03T17:09:15.859Z,100608.31
2019-05-03T17:11:45.944Z,100609.16
2019-05-03T17:14:21.400Z,100609.62
2019-05-03T17:16:49.882Z,100606.93
2019-05-03T17:19:18.332Z,100612.86
2019-05-03T17:21:47.093Z,100607.14
2019-05-03T17:24:16.443Z,100610.05
2019-05-03T17:26:45.050Z,100607.94
2019-05-03T17:29:13.591Z,100605.00
2019-05-03T17:31:42.126Z,100604.58
2019-05-03T17:34:10.571Z,100475.44
2019-05-03T17:36:39.104Z,100606.39
2019-05-03T17:39:10.891Z,100602.01
2019-05-03T17:42:31.909Z,100595.48
2019-05-03T17:45:00.326Z,100598.09
2019-05-03T17:47:28.798Z,100598.19
2019-05-03T17:49:57.254Z,100604.37
2019-05-03T17:52:34.338Z,100599.70
2019-05-03T17:55:04.992Z,100589.27
2019-05-03T17:57:37.886Z,100593.29
2019-05-03T18:00:09.303Z,100592.38
2019-05-03T18:02:39.414Z,100591.56
2019-05-03T18:05:25.862Z,100589.84
2019-05-03T18:08:21.495Z,100600.31
2019-05-03T18:10:57.545Z,100598.97
2019-05-03T18:13:25.983Z,100593.71
2019-05-03T18:15:54.500Z,100590.15
2019-05-03T18:21:35.067Z,100586.06
2019-05-03T18:24:04.941Z,100584.39
2019-05-03T18:26:35.386Z,100585.69
2019-05-03T18:29:05.638Z,100580.52
2019-05-03T18:31:36.519Z,100584.93
2019-05-03T18:34:08.858Z,100578.91
2019-05-03T18:36:35.285Z,100571.97
2019-05-03T18:39:05.558Z,100568.94
2019-05-03T18:41:34.623Z,100576.30
2019-05-03T18:44:14.785Z,100574.58
2019-05-03T18:46:46.738Z,100572.94
2019-05-03T18:49:15.200Z,100575.63
2019-05-03T18:51:44.732Z,100578.34
2019-05-03T18:54:13.291Z,100584.83
2019-05-03T18:56:41.707Z,100582.22
2019-05-03T18:59:10.156Z,100580.88
2019-05-03T19:01:45.241Z,100581.76
2019-05-03T19:04:34.672Z,100583.98
2019-05-03T19:07:04.356Z,100580.08
2019-05-03T19:09:46.130Z,100583.52
2019-05-03T19:12:32.404Z,100587.89
2019-05-03T19:15:01.085Z,100583.63
2019-05-03T19:17:37.066Z,100592.80
2019-05-03T19:20:09.936Z,100588.88
2019-05-03T19:22:40.073Z,100587.23
2019-05-03T19:25:08.602Z,100588.95
2019-05-03T19:27:37.123Z,100592.76
2019-05-03T19:30:07.324Z,100592.69
2019-05-03T19:32:35.959Z,100584.94
2019-05-03T19:35:08.539Z,100585.75
2019-05-03T19:37:38.454Z,100582.75
2019-05-03T19:40:07.327Z,100493.12
2019-05-03T19:42:35.881Z,100585.86
2019-05-03T19:45:05.134Z,100578.11
2019-05-03T19:47:35.227Z,100579.45
2019-05-03T19:50:05.276Z,100575.72
2019-05-03T19:52:36.974Z,100569.80
2019-05-03T19:55:10.621Z,100566.44
2019-05-03T19:57:41.704Z,100569.50
2019-05-03T20:00:10.410Z,100571.32
2019-05-03T20:02:56.465Z,100561.75
2019-05-03T20:05:47.250Z,100573.47
2019-05-03T20:08:17.338Z,100574.73
2019-05-03T20:10:46.419Z,100570.38
2019-05-03T20:13:15.231Z,100566.87
2019-05-03T20:15:45.073Z,100570.83
2019-05-03T20:18:15.026Z,100562.96
2019-05-03T20:20:44.708Z,100555.99
2019-05-03T20:23:25.095Z,100553.75
2019-05-03T20:25:54.625Z,100555.54
2019-05-03T20:28:24.814Z,100552.02
2019-05-03T20:30:54.485Z,100551.56
2019-05-03T20:33:29.218Z,100549.35
2019-05-03T20:35:57.829Z,100552.80
2019-05-03T20:38:26.248Z,100551.92
2019-05-03T20:40:58.432Z,100540.17
2019-05-03T20:43:44.515Z,100418.23
2019-05-03T20:46:20.746Z,100539.67
2019-05-03T20:48:53.602Z,100530.94
2019-05-03T20:51:25.190Z,100532.20
2019-05-03T20:53:55.335Z,100537.03
2019-05-03T20:56:28.327Z,100532.20
2019-05-03T20:58:59.716Z,100526.27
2019-05-03T21:01:29.741Z,100526.65
2019-05-03T21:04:00.603Z,100524.89
2019-05-03T21:06:35.988Z,100528.34
2019-05-03T21:09:06.401Z,100530.02
2019-05-03T21:11:35.542Z,100528.83
2019-05-03T21:14:04.807Z,100522.32
2019-05-03T21:16:45.174Z,100524.89
2019-05-03T21:19:15.876Z,100520.56
2019-05-03T21:21:46.009Z,100513.59
2019-05-03T21:24:16.085Z,100516.23
2019-05-03T21:26:56.474Z,100506.66
2019-05-03T21:29:24.964Z,100512.81
2019-05-03T21:31:55.143Z,100501.94
2019-05-03T21:34:25.178Z,100499.75
2019-05-03T21:36:54.477Z,100504.47
2019-05-03T21:39:24.703Z,100496.20
2019-05-03T21:41:53.156Z,100494.52
2019-05-03T21:44:31.299Z,100490.19
2019-05-03T21:47:04.814Z,100492.83
2019-05-03T21:49:34.873Z,100493.63
2019-05-03T21:52:04.583Z,100485.86
2019-05-03T21:54:34.647Z,100477.23
2019-05-03T21:57:03.162Z,100479.08
2019-05-03T21:59:31.604Z,100484.42
2019-05-03T22:02:00.019Z,100490.55
2019-05-03T22:04:28.471Z,100483.23
2019-05-03T22:06:57.014Z,100486.36
2019-05-03T22:09:25.488Z,100489.84
2019-05-03T22:11:54.856Z,100490.78
2019-05-03T22:14:25.078Z,100487.47
2019-05-03T22:16:55.430Z,100481.14
2019-05-03T22:19:25.048Z,100485.11
2019-05-03T22:22:00.715Z,100480.98
2019-05-03T22:24:33.828Z,100478.44
2019-05-03T22:27:06.551Z,100475.81
2019-05-03T22:29:35.647Z,100469.81
2019-05-03T22:32:05.277Z,100464.29
2019-05-03T22:34:34.867Z,100463.84
2019-05-03T22:37:05.648Z,100466.09
2019-05-03T22:39:34.138Z,100457.97
2019-05-03T22:42:04.363Z,100462.76
2019-05-03T22:44:32.835Z,100456.27
2019-05-03T22:47:01.328Z,100461.47
2019-05-03T22:49:29.791Z,100459.30
2019-05-03T22:51:58.898Z,100455.37
2019-05-03T22:54:27.360Z,100452.40
2019-05-03T22:56:55.830Z,100455.42
2019-05-03T22:59:25.245Z,100456.84
2019-05-03T23:02:00.169Z,100450.36
2019-05-03T23:04:28.619Z,100454.83
2019-05-03T23:06:57.085Z,100449.28
2019-05-03T23:09:25.575Z,100447.93
2019-05-03T23:11:55.218Z,100450.45
2019-05-03T23:14:25.405Z,100446.19
2019-05-03T23:16:54.330Z,100441.00
2019-05-03T23:19:22.817Z,100441.00
2019-05-03T23:22:01.843Z,100434.06
2019-05-03T23:24:35.258Z,100434.06
2019-05-03T23:27:05.046Z,100428.98
2019-05-03T23:29:34.927Z,100435.94
2019-05-03T23:32:04.683Z,100431.58
2019-05-03T23:34:35.344Z,100433.73
2019-05-03T23:37:05.508Z,100429.84
2019-05-03T23:39:34.184Z,100431.56
2019-05-03T23:42:04.938Z,100436.77
2019-05-03T23:44:35.125Z,100432.03
2019-05-03T23:47:11.621Z,100431.64
2019-05-03T23:49:40.166Z,100431.67
2019-05-03T23:52:14.943Z,100428.27
2019-05-03T23:54:43.874Z,100426.95
2019-05-03T23:57:14.365Z,100423.95
2019-05-03T23:59:44.854Z,100419.17
